Time;durP1;ratioP1;P1;durP2;ratioP2;P2;SDS_P1;SDS_P2;PMS_P1;PMS_P2;Temp;Humidity;BMP_temperature;BMP_pressure;BME280_temperature;BME280_humidity;BME280_pressure;Samples;Min_cycle;Max_cycle;Signal;HPM_P1;HPM_P2
2023/06/24 07:23:23;;;;;;;7.30;6.22;;;;;;;-145.79;53.55;77525.66;5324682;27;1220937;-69
2023/06/24 07:25:55;;;;;;;6.40;5.80;;;;;;;-145.79;53.21;77523.53;5339575;27;20028;-69
2023/06/24 07:28:29;;;;;;;7.38;6.20;;;;;;;-145.79;53.41;77500.22;5336171;28;20455;-68
2023/06/24 07:31:00;;;;;;;6.53;5.70;;;;;;;-145.79;52.54;77493.84;5337828;28;20650;-69
2023/06/24 07:33:32;;;;;;;6.28;5.47;;;;;;;-145.79;51.90;77483.25;5341412;27;20023;-68
2023/06/24 07:36:03;;;;;;;11.98;10.73;;;;;;;-145.79;52.05;77476.91;5339113;27;20420;-68
2023/06/24 07:38:35;;;;;;;8.52;7.30;;;;;;;-145.79;52.77;77445.09;5340855;27;20023;-68
2023/06/24 07:41:06;;;;;;;7.32;6.40;;;;;;;-145.79;52.57;77447.22;5341648;28;20115;-68
2023/06/24 07:43:38;;;;;;;7.60;6.13;;;;;;;-145.79;52.32;77440.88;5333353;27;20039;-67
2023/06/24 07:46:10;;;;;;;9.48;5.20;;;;;;;-145.79;52.04;77415.44;5320301;28;20515;-69
2023/06/24 07:48:41;;;;;;;6.38;5.38;;;;;;;-145.79;51.51;77411.19;5321038;28;20085;-69
2023/06/24 07:51:15;;;;;;;5.78;4.75;;;;;;;-145.79;53.00;77413.31;5320628;28;20053;-70
2023/06/24 07:53:46;;;;;;;7.53;6.22;;;;;;;-145.79;50.78;77421.78;5329585;28;20024;-69
2023/06/24 07:56:18;;;;;;;6.05;5.45;;;;;;;-145.79;51.49;77419.66;5342792;27;20092;-69
2023/06/24 07:58:52;;;;;;;6.85;5.13;;;;;;;-145.79;50.75;77398.47;5341671;27;20454;-68
2023/06/24 08:01:23;;;;;;;5.78;5.20;;;;;;;-145.79;50.24;77394.22;5328950;27;20038;-65
2023/06/24 08:03:55;;;;;;;6.05;5.15;;;;;;;-145.79;49.81;77398.47;5320558;28;20032;-66
2023/06/24 08:06:27;;;;;;;6.10;5.25;;;;;;;-145.79;49.60;77398.47;5319930;28;20375;-68
2023/06/24 08:08:58;;;;;;;4.55;3.85;;;;;;;-145.79;49.46;77373.03;5321095;28;20024;-69
2023/06/24 08:11:29;;;;;;;6.15;4.40;;;;;;;-145.79;48.60;77351.84;5321228;28;20027;-67
2023/06/24 08:14:01;;;;;;;6.47;3.42;;;;;;;-145.79;47.11;77364.56;5320213;28;20435;-67
2023/06/24 08:16:35;;;;;;;5.50;3.55;;;;;;;-145.79;47.49;77347.59;5341923;27;20023;-66
2023/06/24 08:19:07;;;;;;;5.70;3.17;;;;;;;-145.79;48.11;77320.03;5322029;27;20028;-66
2023/06/24 08:21:38;;;;;;;4.15;3.58;;;;;;;-145.79;45.99;77339.13;5320714;28;20078;-67
2023/06/24 08:24:09;;;;;;;5.97;3.38;;;;;;;-145.79;46.19;77322.16;5320775;28;20057;-67
2023/06/24 08:26:41;;;;;;;4.15;3.75;;;;;;;-145.79;45.70;77320.03;5323208;28;20023;-68
2023/06/24 08:29:12;;;;;;;4.13;3.13;;;;;;;-145.79;44.53;77313.69;5324230;28;20525;-70
2023/06/24 08:31:46;;;;;;;4.22;2.90;;;;;;;-145.79;44.65;77305.22;5320560;28;20129;-67
2023/06/24 08:34:18;;;;;;;5.80;2.97;;;;;;;-145.79;45.26;77296.72;5320847;28;20425;-67
2023/06/24 08:36:49;;;;;;;11.70;10.60;;;;;;;-145.79;46.02;77300.97;5320059;28;20028;-68
2023/06/24 08:39:20;;;;;;;21.75;19.75;;;;;;;-145.79;45.38;77277.66;5326293;28;20027;-67
2023/06/24 08:41:52;;;;;;;4.25;3.58;;;;;;;-145.79;44.60;77264.94;5309339;28;20031;-68
2023/06/24 08:44:23;;;;;;;4.90;3.20;;;;;;;-145.79;44.31;77264.94;5327432;28;20111;-67
2023/06/24 08:46:55;;;;;;;4.95;4.22;;;;;;;-145.79;44.40;77237.38;5326155;28;20511;-68
2023/06/24 08:49:30;;;;;;;3.17;2.70;;;;;;;-145.79;44.22;77228.91;5326837;28;20106;-68
2023/06/24 08:52:07;;;;;;;5.40;3.10;;;;;;;-145.79;44.66;77220.44;5316754;28;20093;-68
2023/06/24 08:54:40;;;;;;;4.03;3.33;;;;;;;-145.79;43.84;77218.31;5304830;28;20024;-67
2023/06/24 08:57:14;;;;;;;3.97;3.00;;;;;;;-145.79;43.48;77209.81;5322175;28;20027;-68
2023/06/24 08:59:46;;;;;;;3.75;3.13;;;;;;;-145.79;43.45;77211.94;5327154;27;20024;-69
2023/06/24 09:02:17;;;;;;;3.55;2.88;;;;;;;-145.79;43.23;77216.19;5326254;28;20038;-68
2023/06/24 09:04:51;;;;;;;3.50;2.83;;;;;;;-145.79;43.09;77199.22;5319555;28;20039;-68
2023/06/24 09:07:30;;;;;;;3.95;2.75;;;;;;;-145.79;42.79;77199.22;5306932;28;20036;-68
2023/06/24 09:10:01;;;;;;;3.03;2.72;;;;;;;-145.79;42.79;77186.50;5305280;28;20067;-67
2023/06/24 09:12:34;;;;;;;2.97;2.50;;;;;;;-145.79;43.04;77184.41;5305416;28;20067;-68
2023/06/24 09:15:06;;;;;;;2.78;2.50;;;;;;;-145.79;42.15;77165.31;5309853;28;20015;-67
2023/06/24 09:17:44;;;;;;;12.57;11.40;;;;;;;-145.79;41.68;77175.91;5310973;28;20027;-67
2023/06/24 09:20:19;;;;;;;4.05;3.65;;;;;;;-145.79;42.46;77137.75;5307854;28;20017;-67
2023/06/24 09:22:51;;;;;;;4.28;3.05;;;;;;;-145.79;41.09;77158.97;5325424;28;20050;-67
2023/06/24 09:25:23;;;;;;;3.13;2.58;;;;;;;-145.79;41.28;77152.59;5318124;28;20032;-67
2023/06/24 09:27:55;;;;;;;6.43;2.90;;;;;;;-145.79;39.78;77154.72;5304874;28;20028;-67
2023/06/24 09:30:29;;;;;;;2.90;2.70;;;;;;;-145.79;40.48;77146.25;5304125;28;20032;-68
2023/06/24 09:33:01;;;;;;;3.00;2.55;;;;;;;-145.79;40.52;77131.41;5304923;28;20030;-67
2023/06/24 09:35:34;;;;;;;2.60;2.40;;;;;;;-145.79;42.05;77114.44;5304298;28;20024;-68
2023/06/24 09:38:06;;;;;;;3.47;2.83;;;;;;;-145.79;41.76;77114.44;5318135;28;20076;-68
2023/06/24 09:40:38;;;;;;;4.15;2.92;;;;;;;-145.79;40.57;77114.44;5324249;28;20019;-68
2023/06/24 09:43:20;;;;;;;4.00;2.88;;;;;;;-145.79;39.50;77101.72;5313930;28;20080;-67
2023/06/24 09:45:52;;;;;;;3.20;2.63;;;;;;;-145.79;39.42;77091.13;5302340;28;20032;-67
2023/06/24 09:48:23;;;;;;;3.75;2.40;;;;;;;-145.79;40.45;77093.25;5321472;28;20054;-68
2023/06/24 09:51:02;;;;;;;4.72;3.33;;;;;;;-145.79;40.52;77084.78;5325352;28;20529;-68
2023/06/24 09:53:34;;;;;;;4.95;3.17;;;;;;;-145.79;40.53;77089.00;5323685;28;20498;-68
2023/06/24 09:56:08;;;;;;;3.63;2.67;;;;;;;-145.79;40.48;77078.41;5325897;28;20023;-68
2023/06/24 09:58:43;;;;;;;4.30;3.50;;;;;;;-145.79;39.95;77067.81;5325078;28;20374;-68
2023/06/24 10:01:16;;;;;;;3.45;2.92;;;;;;;-145.79;38.72;77072.06;5305068;28;20062;-68
2023/06/24 10:03:48;;;;;;;4.72;3.05;;;;;;;-145.79;39.56;77055.09;5302281;28;20089;-68
2023/06/24 10:06:20;;;;;;;8.25;7.47;;;;;;;-145.79;40.20;77063.59;5301433;28;20029;-68
2023/06/24 10:08:52;;;;;;;3.35;2.92;;;;;;;-145.79;39.58;77040.25;5322607;28;20024;-68
2023/06/24 10:11:23;;;;;;;3.42;3.13;;;;;;;-145.79;40.75;77057.22;5321465;28;20063;-68
2023/06/24 10:13:55;;;;;;;3.67;2.92;;;;;;;-145.79;40.11;77042.38;5323252;28;20066;-68
2023/06/24 10:16:26;;;;;;;5.60;2.75;;;;;;;-145.79;39.82;77040.25;5318130;28;20026;-68
2023/06/24 10:19:03;;;;;;;3.30;2.83;;;;;;;-145.79;39.25;76995.75;5302272;28;20135;-68
2023/06/24 10:21:46;;;;;;;3.25;2.80;;;;;;;-145.79;39.63;76983.03;5309091;28;20470;-68
2023/06/24 10:24:47;;;;;;;3.25;2.95;;;;;;;-145.79;39.13;76997.88;5303824;28;20038;-67
2023/06/24 10:27:22;;;;;;;4.97;2.47;;;;;;;-145.79;37.66;76993.63;5303446;28;20040;-68
2023/06/24 10:30:01;;;;;;;4.15;3.15;;;;;;;-145.79;38.50;77006.34;5303763;28;20024;-67
2023/06/24 10:32:44;;;;;;;16.48;14.98;;;;;;;-145.79;38.71;76987.28;5305568;28;20039;-69
2023/06/24 10:35:27;;;;;;;2.97;2.58;;;;;;;-145.79;38.28;76970.31;5307741;28;20041;-68
2023/06/24 10:38:00;;;;;;;5.05;3.03;;;;;;;-145.79;38.00;76972.44;5312120;28;20095;-68
2023/06/24 10:40:36;;;;;;;3.20;2.90;;;;;;;-145.79;37.48;76961.84;5316814;28;20055;-68
2023/06/24 10:43:22;;;;;;;3.75;2.92;;;;;;;-145.79;38.52;76961.84;5324656;28;20114;-68
2023/06/24 10:45:55;;;;;;;6.65;6.00;;;;;;;-145.79;37.89;76953.38;5324616;28;20028;-68
2023/06/24 10:48:27;;;;;;;3.35;3.05;;;;;;;-145.79;38.55;76957.59;5304013;28;20081;-68
2023/06/24 10:50:58;;;;;;;9.90;9.10;;;;;;;-145.79;38.49;76951.25;5312875;28;20023;-68
2023/06/24 10:53:30;;;;;;;6.00;5.38;;;;;;;-145.79;38.99;76923.69;5325192;28;20089;-68
2023/06/24 10:56:01;;;;;;;5.07;4.00;;;;;;;-145.79;38.80;76919.47;5324755;27;20039;-69
2023/06/24 10:58:35;;;;;;;5.70;4.93;;;;;;;-145.79;39.15;76923.69;5324028;28;20093;-68
2023/06/24 11:01:08;;;;;;;4.43;4.03;;;;;;;-145.79;38.92;76940.66;5322394;28;20100;-67
2023/06/24 11:03:40;;;;;;;4.53;4.13;;;;;;;-145.79;39.89;76923.69;5324751;28;20419;-68
2023/06/24 11:06:12;;;;;;;3.90;3.42;;;;;;;-145.79;39.76;76913.09;5324306;28;20093;-68
2023/06/24 11:08:45;;;;;;;18.73;16.98;;;;;;;-145.79;38.79;76906.75;5321865;28;20057;-70
2023/06/24 11:11:21;;;;;;;4.05;3.65;;;;;;;-145.79;38.67;76908.88;5324913;28;20041;-67
2023/06/24 11:13:55;;;;;;;3.88;2.97;;;;;;;-145.79;38.14;76930.06;5324604;28;20051;-67
2023/06/24 11:16:26;;;;;;;4.38;3.97;;;;;;;-145.79;39.53;76908.88;5305477;28;20024;-68
2023/06/24 11:19:01;;;;;;;4.20;3.50;;;;;;;-145.79;39.35;76885.56;5317428;28;20034;-69
2023/06/24 11:21:32;;;;;;;4.05;3.65;;;;;;;-145.79;39.10;76881.31;5324122;28;20040;-69
2023/06/24 11:24:04;;;;;;;5.10;4.60;;;;;;;-145.79;39.02;76885.56;5321385;28;20026;-69
2023/06/24 11:26:38;;;;;;;5.07;3.85;;;;;;;-145.79;39.84;76870.72;5303122;28;20024;-69
2023/06/24 11:29:11;;;;;;;4.35;3.28;;;;;;;-145.79;39.11;76847.41;5296966;28;20052;-68
2023/06/24 11:31:44;;;;;;;3.80;2.90;;;;;;;-145.79;39.02;76847.41;5305096;28;20024;-68
2023/06/24 11:34:16;;;;;;;5.82;3.45;;;;;;;-145.79;39.62;76834.69;5318210;28;20084;-69
2023/06/24 11:36:48;;;;;;;3.75;3.38;;;;;;;-145.79;38.56;76832.56;5302029;28;20109;-68
2023/06/24 11:39:28;;;;;;;4.43;3.58;;;;;;;-145.79;37.78;76796.53;5312926;28;20154;-68
2023/06/24 11:41:59;;;;;;;6.63;3.33;;;;;;;-145.79;37.77;76805.00;5302041;28;20408;-67
2023/06/24 11:44:31;;;;;;;3.80;3.40;;;;;;;-145.79;37.55;76785.94;5301864;28;20037;-68
2023/06/24 11:47:09;;;;;;;4.20;3.55;;;;;;;-145.79;38.46;76790.19;5322078;28;20019;-70
2023/06/24 11:50:00;;;;;;;5.85;5.32;;;;;;;-145.79;37.84;76796.53;5322487;28;20059;-68
2023/06/24 11:52:45;;;;;;;3.92;3.60;;;;;;;-145.79;38.03;76777.47;5312961;28;20020;-69
2023/06/24 11:55:23;;;;;;;3.63;3.33;;;;;;;-145.79;37.93;76775.34;5308836;28;20020;-68
2023/06/24 11:58:01;;;;;;;8.57;4.35;;;;;;;-145.79;37.76;76739.31;5319993;28;20459;-68
2023/06/24 12:00:37;;;;;;;3.35;2.97;;;;;;;-145.79;37.56;76749.91;5302478;28;20024;-68
2023/06/24 12:03:10;;;;;;;6.50;4.07;;;;;;;-145.79;37.57;76749.91;5302875;28;20487;-68
2023/06/24 12:05:47;;;;;;;5.22;3.05;;;;;;;-145.79;38.42;76732.97;5306161;28;20031;-70
2023/06/24 12:08:18;;;;;;;5.20;3.92;;;;;;;-145.79;36.92;76741.44;5316290;28;20020;-70
2023/06/24 12:10:49;;;;;;;6.22;3.50;;;;;;;-145.79;36.98;76735.06;5321341;28;20383;-69
2023/06/24 12:13:21;;;;;;;5.22;3.42;;;;;;;-145.79;37.34;76703.28;5314929;28;20016;-68
2023/06/24 12:15:52;;;;;;;4.07;3.60;;;;;;;-145.79;37.59;76677.84;5316750;28;20020;-69
2023/06/24 12:18:23;;;;;;;5.03;3.55;;;;;;;-145.79;37.12;76692.69;5327083;28;20127;-69
2023/06/24 12:20:55;;;;;;;4.40;3.63;;;;;;;-145.79;36.58;76703.28;5308935;28;20031;-68
2023/06/24 12:23:27;;;;;;;10.38;9.43;;;;;;;-145.79;37.55;76688.44;5306829;28;20085;-68
2023/06/24 12:25:58;;;;;;;12.93;11.75;;;;;;;-145.79;37.27;76669.38;5305980;28;20028;-68
2023/06/24 12:28:29;;;;;;;4.28;3.47;;;;;;;-145.79;37.16;76686.34;5324735;28;20030;-68
2023/06/24 12:31:01;;;;;;;3.53;3.17;;;;;;;-145.79;38.56;76639.72;5322479;27;20214;-68
2023/06/24 12:33:32;;;;;;;5.20;3.75;;;;;;;-145.79;37.30;76648.19;5319389;28;20055;-68
2023/06/24 12:36:04;;;;;;;4.03;3.65;;;;;;;-145.79;37.02;76658.78;5326197;28;20032;-68
2023/06/24 12:38:35;;;;;;;4.40;3.80;;;;;;;-145.79;36.88;76682.09;5327277;28;20055;-69
2023/06/24 12:41:07;;;;;;;3.58;3.28;;;;;;;-145.79;37.81;76656.66;5324189;28;20454;-68
2023/06/24 12:43:38;;;;;;;3.53;3.22;;;;;;;-145.79;37.61;76654.53;5327337;28;20027;-68
2023/06/24 12:46:10;;;;;;;4.90;3.20;;;;;;;-145.79;37.02;76620.63;5321339;28;20024;-68
2023/06/24 12:48:43;;;;;;;4.38;3.30;;;;;;;-145.79;36.06;76654.53;5306184;28;20020;-69
2023/06/24 12:51:14;;;;;;;3.75;3.35;;;;;;;-145.79;36.57;76622.75;5326324;28;20068;-68
2023/06/24 12:53:46;;;;;;;3.60;3.30;;;;;;;-145.79;36.32;76605.81;5313323;28;20028;-68
2023/06/24 12:56:17;;;;;;;18.30;16.80;;;;;;;-145.79;36.24;76584.59;5309802;28;20065;-69
2023/06/24 12:58:48;;;;;;;28.00;25.40;;;;;;;-145.79;35.71;76544.34;5305609;28;20035;-68
2023/06/24 13:01:20;;;;;;;5.28;4.80;;;;;;;-145.79;36.53;76561.28;5305226;28;20036;-69
2023/06/24 13:03:51;;;;;;;3.83;3.47;;;;;;;-145.79;36.30;76533.75;5305048;28;20020;-68
2023/06/24 13:06:23;;;;;;;4.20;3.45;;;;;;;-145.79;36.46;76529.50;5305835;28;20036;-67
2023/06/24 13:08:54;;;;;;;3.05;2.78;;;;;;;-145.79;37.19;76531.63;5300157;28;20082;-68
2023/06/24 13:11:25;;;;;;;7.05;6.15;;;;;;;-145.79;35.60;76533.75;5316735;28;20036;-68
2023/06/24 13:13:56;;;;;;;5.97;3.55;;;;;;;-145.79;35.48;76516.78;5314605;28;20420;-66
2023/06/24 13:16:28;;;;;;;8.90;8.10;;;;;;;-145.79;35.48;76546.47;5325416;28;20028;-68
2023/06/24 13:18:59;;;;;;;4.28;3.00;;;;;;;-145.79;35.29;76516.78;5326305;28;20459;-68
2023/06/24 13:21:30;;;;;;;3.30;3.00;;;;;;;-145.79;35.10;76512.56;5323248;28;20040;-68
2023/06/24 13:24:02;;;;;;;4.97;3.25;;;;;;;-145.79;36.21;76470.19;5313832;28;20020;-68
2023/06/24 13:26:34;;;;;;;3.95;3.55;;;;;;;-145.79;36.04;76470.19;5303014;28;20028;-68
2023/06/24 13:29:05;;;;;;;5.70;5.20;;;;;;;-145.79;35.40;76476.53;5304248;28;20108;-68
2023/06/24 13:31:37;;;;;;;4.35;3.80;;;;;;;-145.79;34.98;76544.34;5318780;28;20031;-67
2023/06/24 13:34:08;;;;;;;4.88;3.50;;;;;;;-145.79;35.54;76533.75;5326387;28;20479;-68
2023/06/24 13:36:40;;;;;;;4.60;3.45;;;;;;;-145.79;35.21;76521.03;5325266;28;20019;-67
2023/06/24 13:39:12;;;;;;;3.60;3.30;;;;;;;-145.79;35.29;76480.78;5324453;28;20043;-67
2023/06/24 13:41:47;;;;;;;4.57;3.20;;;;;;;-145.79;35.34;76470.19;5324928;28;20027;-68
2023/06/24 13:44:18;;;;;;;3.58;3.28;;;;;;;-145.79;35.04;76436.28;5322256;28;20051;-65
2023/06/24 13:46:53;;;;;;;3.97;3.30;;;;;;;-145.79;34.72;76444.75;5325524;28;20441;-69
2023/06/24 13:49:25;;;;;;;3.58;3.28;;;;;;;-145.79;34.86;76438.38;5322013;28;20016;-68
2023/06/24 13:51:56;;;;;;;4.20;3.63;;;;;;;-145.79;34.68;76419.31;5322083;28;20464;-66
2023/06/24 13:54:31;;;;;;;4.78;3.20;;;;;;;-145.79;34.28;76385.41;5320145;28;20037;-66
2023/06/24 13:57:02;;;;;;;4.72;3.00;;;;;;;-145.79;34.17;76381.16;5323403;28;20057;-66
2023/06/24 13:59:39;;;;;;;3.75;3.45;;;;;;;-145.79;34.02;76383.28;5325112;28;20023;-67
2023/06/24 14:02:11;;;;;;;4.25;3.90;;;;;;;-145.79;34.35;76400.25;5321918;28;20387;-66
2023/06/24 14:04:42;;;;;;;5.97;3.42;;;;;;;-145.79;34.14;76366.34;5324686;28;20046;-67
2023/06/24 14:07:14;;;;;;;4.65;3.50;;;;;;;-145.79;33.85;76368.47;5322543;28;20016;-67
2023/06/24 14:09:45;;;;;;;4.47;3.50;;;;;;;-145.79;34.94;76334.56;5320318;28;20019;-67
2023/06/24 14:12:17;;;;;;;4.05;3.50;;;;;;;-145.79;33.85;76351.50;5320605;28;20024;-66
2023/06/24 14:14:48;;;;;;;4.97;4.03;;;;;;;-145.79;33.96;76351.50;5322818;27;20027;-66
2023/06/24 14:17:21;;;;;;;5.57;3.42;;;;;;;-145.79;34.44;76315.47;5323742;28;20031;-67
2023/06/24 14:19:52;;;;;;;5.53;3.10;;;;;;;-145.79;33.49;76351.50;5313884;28;20131;-67
2023/06/24 14:22:24;;;;;;;89.03;81.43;;;;;;;-145.79;33.18;76338.78;5324833;28;20118;-67
2023/06/24 14:24:55;;;;;;;6.55;4.65;;;;;;;-145.79;33.36;76338.78;5320969;28;20115;-67
2023/06/24 14:27:26;;;;;;;4.32;3.92;;;;;;;-145.79;33.74;76309.13;5323457;28;20393;-67
2023/06/24 14:29:58;;;;;;;4.00;3.60;;;;;;;-145.79;33.49;76313.34;5323408;28;20023;-67
2023/06/24 14:32:29;;;;;;;3.47;3.17;;;;;;;-145.79;33.16;76285.81;5319351;28;20020;-67
2023/06/24 14:35:01;;;;;;;3.65;3.30;;;;;;;-145.79;33.30;76266.75;5319014;28;20103;-66
2023/06/24 14:37:32;;;;;;;6.90;5.25;;;;;;;-145.79;32.71;76296.41;5319741;28;20088;-67
2023/06/24 14:40:04;;;;;;;8.32;7.55;;;;;;;-145.79;32.50;76268.84;5321047;28;20046;-67
2023/06/24 14:42:36;;;;;;;4.57;4.10;;;;;;;-145.79;32.57;76300.66;5324348;28;20020;-68
2023/06/24 14:45:08;;;;;;;5.03;3.67;;;;;;;-145.79;32.68;76294.28;5324698;28;20038;-69
2023/06/24 14:47:39;;;;;;;6.20;5.60;;;;;;;-145.79;33.25;76262.50;5321222;28;20023;-67
2023/06/24 14:50:11;;;;;;;5.63;4.50;;;;;;;-145.79;33.04;76254.03;5319540;28;20418;-68
2023/06/24 14:52:42;;;;;;;5.50;3.63;;;;;;;-145.79;32.34;76266.75;5322156;28;20016;-67
2023/06/24 14:55:13;;;;;;;3.55;3.03;;;;;;;-145.79;33.15;76275.22;5313889;28;20116;-68
2023/06/24 14:57:45;;;;;;;5.07;3.50;;;;;;;-145.79;33.55;76249.78;5313274;28;20357;-66
2023/06/24 15:00:16;;;;;;;3.80;3.50;;;;;;;-145.79;32.60;76262.50;5314289;28;20028;-67
2023/06/24 15:02:47;;;;;;;4.18;3.35;;;;;;;-145.79;32.85;76228.59;5321722;28;20032;-67
2023/06/24 15:05:19;;;;;;;3.67;3.38;;;;;;;-145.79;32.74;76220.13;5320000;28;20020;-66
2023/06/24 15:07:50;;;;;;;3.85;3.45;;;;;;;-145.79;32.06;76251.91;5322198;28;20399;-68
2023/06/24 15:10:22;;;;;;;4.88;3.85;;;;;;;-145.79;32.25;76245.56;5317196;28;20057;-67
2023/06/24 15:12:53;;;;;;;5.05;3.33;;;;;;;-145.79;32.51;76230.72;5321435;28;20032;-67
2023/06/24 15:15:24;;;;;;;4.25;3.40;;;;;;;-145.79;32.31;76237.06;5321253;28;20026;-67
2023/06/24 15:17:55;;;;;;;4.45;3.63;;;;;;;-145.79;32.66;76262.50;5320151;28;20033;-68
2023/06/24 15:20:27;;;;;;;4.13;3.63;;;;;;;-145.79;32.87;76245.56;5320321;28;20019;-67
2023/06/24 15:22:58;;;;;;;16.52;15.23;;;;;;;-145.79;32.54;76239.19;5319910;28;20044;-67
2023/06/24 15:25:29;;;;;;;19.10;17.50;;;;;;;-145.79;32.70;76209.53;5321140;28;20070;-67
2023/06/24 15:28:01;;;;;;;4.45;3.92;;;;;;;-145.79;32.85;76209.53;5320913;28;20376;-67
2023/06/24 15:30:32;;;;;;;7.13;4.15;;;;;;;-145.79;32.44;76247.66;5324881;28;20098;-67
2023/06/24 15:33:03;;;;;;;4.28;3.88;;;;;;;-145.79;32.40;76228.59;5319932;28;20023;-67
2023/06/24 15:35:35;;;;;;;4.90;3.38;;;;;;;-145.79;32.50;76241.31;5317330;28;20100;-66
2023/06/24 15:38:09;;;;;;;5.18;3.83;;;;;;;-145.79;32.46;76247.66;5322575;28;20019;-66
2023/06/24 15:40:41;;;;;;;5.32;3.97;;;;;;;-145.79;32.90;76234.97;5309638;28;20032;-66
2023/06/24 15:43:13;;;;;;;98.55;89.88;;;;;;;-145.79;32.81;76196.81;5306831;28;20032;-65
2023/06/24 15:45:44;;;;;;;4.93;4.47;;;;;;;-145.79;32.20;76211.66;5317290;28;20398;-65
2023/06/24 15:48:18;;;;;;;4.35;3.47;;;;;;;-145.79;32.06;76234.97;5324036;28;20016;-65
2023/06/24 15:50:50;;;;;;;3.63;3.33;;;;;;;-145.79;32.24;76213.75;5310056;28;20035;-66
2023/06/24 15:53:21;;;;;;;5.53;3.90;;;;;;;-145.79;32.23;76245.56;5327195;28;20031;-67
2023/06/24 15:55:53;;;;;;;4.45;4.05;;;;;;;-145.79;32.00;76237.06;5316477;28;20141;-68
2023/06/24 15:58:27;;;;;;;4.07;3.60;;;;;;;-145.79;31.88;76228.59;5306133;28;20020;-68
2023/06/24 16:00:58;;;;;;;3.65;3.17;;;;;;;-145.79;31.92;76258.25;5307047;28;20028;-68
2023/06/24 16:03:29;;;;;;;3.60;3.30;;;;;;;-145.79;31.83;76220.13;5314115;28;20088;-67
2023/06/24 16:06:01;;;;;;;3.97;3.58;;;;;;;-145.79;31.81;76190.47;5327407;28;20038;-66
2023/06/24 16:08:32;;;;;;;3.80;3.47;;;;;;;-145.79;31.61;76207.41;5327857;28;20031;-67
2023/06/24 16:11:04;;;;;;;4.10;3.70;;;;;;;-145.79;31.46;76228.59;5325343;27;20024;-67
2023/06/24 16:13:36;;;;;;;5.25;3.95;;;;;;;-145.79;32.04;76215.88;5313214;28;20044;-70
2023/06/24 16:16:08;;;;;;;5.40;3.58;;;;;;;-145.79;32.19;76211.66;5328129;27;20045;-68
2023/06/24 16:18:39;;;;;;;3.90;3.50;;;;;;;-145.79;31.47;76215.88;5321392;28;20016;-66
2023/06/24 16:21:10;;;;;;;3.80;3.50;;;;;;;-145.79;31.46;76226.47;5327337;28;20032;-67
2023/06/24 16:23:42;;;;;;;3.70;3.20;;;;;;;-145.79;31.64;76228.59;5310832;28;20055;-71
2023/06/24 16:26:13;;;;;;;4.65;4.28;;;;;;;-145.79;31.50;76234.97;5304243;28;20063;-68
2023/06/24 16:28:45;;;;;;;6.68;5.13;;;;;;;-145.79;31.66;76237.06;5306449;28;20020;-67
2023/06/24 16:31:17;;;;;;;3.95;3.65;;;;;;;-145.79;31.32;76249.78;5306406;28;20099;-66
2023/06/24 16:33:48;;;;;;;4.25;3.67;;;;;;;-145.79;31.42;76239.19;5306193;28;20025;-67
2023/06/24 16:36:19;;;;;;;6.10;3.83;;;;;;;-145.79;31.42;76207.41;5315622;28;20027;-67
2023/06/24 16:38:51;;;;;;;5.50;3.70;;;;;;;-145.79;31.33;76205.28;5325854;28;20031;-67
2023/06/24 16:41:22;;;;;;;5.25;4.00;;;;;;;-145.79;31.38;76173.50;5316152;28;20054;-66
2023/06/24 16:43:53;;;;;;;5.63;4.22;;;;;;;-145.79;31.12;76175.63;5318947;28;20077;-67
2023/06/24 16:46:26;;;;;;;4.90;3.92;;;;;;;-145.79;30.83;76165.03;5306487;28;20467;-67
2023/06/24 16:49:06;;;;;;;5.45;4.93;;;;;;;-145.79;30.76;76135.38;5306943;28;20095;-69
2023/06/24 16:51:37;;;;;;;4.43;3.08;;;;;;;-145.79;31.41;76154.44;5306706;28;20035;-68
2023/06/24 16:54:08;;;;;;;3.45;3.15;;;;;;;-145.79;30.82;76126.88;5320951;28;20035;-68
